Time;durP1;ratioP1;P1;durP2;ratioP2;P2;SDS_P1;SDS_P2;PMS_P1;PMS_P2;Temp;Humidity;BMP_temperature;BMP_pressure;BME280_temperature;BME280_humidity;BME280_pressure;Samples;Min_cycle;Max_cycle;Signal;HPM_P1;HPM_P2
2022/09/25 00:01:06;;;;;;;;;;;;;;;15.59;66.62;95016.03;5065077;28;20541;-66
2022/09/25 00:03:31;;;;;;;;;;;;;;;15.52;66.95;95013.16;5069215;28;20097;-67
2022/09/25 00:06:01;;;;;;;;;;;;;;;15.50;67.21;95015.38;5067762;28;20104;-66
2022/09/25 00:08:26;;;;;;;;;;;;;;;15.59;66.89;95012.59;5068838;28;20062;-66
2022/09/25 00:10:51;;;;;;;;;;;;;;;15.58;67.06;95019.06;5066470;28;20413;-66
2022/09/25 00:13:18;;;;;;;;;;;;;;;15.54;67.02;95013.59;5072827;28;20465;-66
2022/09/25 00:15:47;;;;;;;;;;;;;;;15.50;67.14;95010.03;5068832;28;20009;-67
2022/09/25 00:18:13;;;;;;;;;;;;;;;15.50;67.33;95003.88;5071479;28;20107;-67
2022/09/25 00:20:38;;;;;;;;;;;;;;;15.47;66.94;95000.00;5069968;28;20477;-66
2022/09/25 00:23:03;;;;;;;;;;;;;;;15.43;66.87;94996.44;5069804;28;20053;-66
2022/09/25 00:25:29;;;;;;;;;;;;;;;15.37;66.90;94997.78;5071391;28;20013;-67
2022/09/25 00:27:54;;;;;;;;;;;;;;;15.30;66.95;95000.22;5071239;28;20662;-66
2022/09/25 00:30:20;;;;;;;;;;;;;;;15.30;67.25;94992.19;5069223;28;20017;-67
2022/09/25 00:32:45;;;;;;;;;;;;;;;15.28;67.49;94989.06;5072370;28;20024;-67
2022/09/25 00:35:10;;;;;;;;;;;;;;;15.21;67.33;94986.97;5071784;28;20052;-66
2022/09/25 00:37:36;;;;;;;;;;;;;;;15.17;67.73;94982.63;5071385;28;20139;-66
2022/09/25 00:40:02;;;;;;;;;;;;;;;15.16;68.08;94986.41;5069947;28;20052;-66
2022/09/25 00:42:27;;;;;;;;;;;;;;;15.15;67.85;94982.97;5072291;28;20009;-66
2022/09/25 00:44:57;;;;;;;;;;;;;;;15.25;67.60;94987.06;5069693;28;20016;-67
2022/09/25 00:47:25;;;;;;;;;;;;;;;15.25;67.55;94981.69;5067826;28;20013;-66
2022/09/25 00:49:51;;;;;;;;;;;;;;;15.25;67.01;94979.81;5070362;28;20024;-67
2022/09/25 00:52:17;;;;;;;;;;;;;;;15.22;66.78;94977.81;5071173;28;20013;-66
2022/09/25 00:55:02;;;;;;;;;;;;;;;15.20;66.97;94968.53;5072033;28;20006;-66
2022/09/25 00:57:29;;;;;;;;;;;;;;;15.19;66.64;94969.66;5070126;28;20431;-66
2022/09/25 00:59:58;;;;;;;;;;;;;;;15.15;66.64;94971.44;5070379;28;20016;-66
2022/09/25 01:02:25;;;;;;;;;;;;;;;15.12;66.76;94970.22;5070278;28;20114;-67
2022/09/25 01:04:51;;;;;;;;;;;;;;;15.02;66.83;94976.81;5071971;28;20009;-66
2022/09/25 01:07:16;;;;;;;;;;;;;;;15.03;66.72;94969.56;5069334;28;20031;-66
2022/09/25 01:09:43;;;;;;;;;;;;;;;14.90;66.64;94973.38;5070228;28;20104;-66
2022/09/25 01:12:08;;;;;;;;;;;;;;;14.96;67.05;94972.03;5070768;28;20059;-66
2022/09/25 01:14:34;;;;;;;;;;;;;;;14.94;66.84;94971.56;5070128;28;20013;-67
2022/09/25 01:17:11;;;;;;;;;;;;;;;14.95;67.00;94967.78;5068195;28;20010;-66
2022/09/25 01:20:00;;;;;;;;;;;;;;;14.88;66.64;94964.88;5069905;28;20432;-67
2022/09/25 01:22:26;;;;;;;;;;;;;;;14.91;67.27;94964.22;5062198;28;20021;-67
2022/09/25 01:25:06;;;;;;;;;;;;;;;14.78;66.52;94971.44;5069915;28;20013;-66
2022/09/25 01:27:40;;;;;;;;;;;;;;;14.74;67.55;94968.69;5071712;28;20019;-66
2022/09/25 01:30:12;;;;;;;;;;;;;;;14.78;68.05;94968.78;5069180;28;20060;-68
2022/09/25 01:33:07;;;;;;;;;;;;;;;14.86;68.15;94962.53;5069892;28;20025;-66
2022/09/25 01:35:51;;;;;;;;;;;;;;;14.94;67.35;94956.28;5031825;28;20134;-66
2022/09/25 01:38:22;;;;;;;;;;;;;;;15.02;67.31;94955.38;5071120;28;20350;-66
2022/09/25 01:40:56;;;;;;;;;;;;;;;15.03;66.99;94956.94;5070509;28;20096;-66
2022/09/25 01:43:26;;;;;;;;;;;;;;;15.07;66.75;94957.84;5071285;28;20005;-67
2022/09/25 01:45:56;;;;;;;;;;;;;;;15.13;66.88;94947.66;5066080;28;20015;-66
2022/09/25 01:48:30;;;;;;;;;;;;;;;15.18;66.91;94954.69;5070713;28;20007;-66
2022/09/25 01:51:04;;;;;;;;;;;;;;;15.20;66.70;94945.22;5069914;28;20013;-66
2022/09/25 01:53:40;;;;;;;;;;;;;;;15.22;66.47;94948.34;5069902;28;20431;-66
2022/09/25 01:56:08;;;;;;;;;;;;;;;15.24;66.30;94956.81;5070070;28;20017;-66
2022/09/25 01:58:37;;;;;;;;;;;;;;;15.21;66.16;94952.13;5070346;28;20009;-66
2022/09/25 02:01:05;;;;;;;;;;;;;;;15.20;65.93;94949.78;5067309;28;20049;-66
2022/09/25 02:03:35;;;;;;;;;;;;;;;15.16;65.92;94948.91;5070831;28;20033;-67
2022/09/25 02:06:01;;;;;;;;;;;;;;;15.04;65.65;94947.00;5069482;28;20440;-66
2022/09/25 02:08:34;;;;;;;;;;;;;;;14.96;66.21;94946.03;5068989;28;20040;-66
2022/09/25 02:11:01;;;;;;;;;;;;;;;15.00;65.81;94946.13;5068134;28;20068;-66
2022/09/25 02:13:29;;;;;;;;;;;;;;;14.97;65.78;94946.81;5069701;28;20005;-66
2022/09/25 02:15:55;;;;;;;;;;;;;;;14.97;66.21;94952.94;5066527;28;20458;-67
2022/09/25 02:21:21;;;;;;;;;;;;;;;15.05;66.07;94951.28;5068547;28;20066;-66
2022/09/25 02:23:49;;;;;;;;;;;;;;;15.12;66.30;94962.19;5070682;28;20005;-67
2022/09/25 02:26:24;;;;;;;;;;;;;;;15.21;66.34;94964.75;5068913;28;20013;-66
2022/09/25 02:28:52;;;;;;;;;;;;;;;15.33;66.23;94970.88;5069897;28;20009;-66
2022/09/25 02:31:19;;;;;;;;;;;;;;;15.40;65.93;94970.28;5065072;28;20070;-66
2022/09/25 02:33:44;;;;;;;;;;;;;;;15.48;65.67;94974.75;5068372;28;20060;-66
2022/09/25 02:36:17;;;;;;;;;;;;;;;15.55;65.50;94972.25;5068461;28;20048;-65
2022/09/25 02:38:43;;;;;;;;;;;;;;;15.63;65.41;94967.94;5068937;28;20017;-67
2022/09/25 02:41:08;;;;;;;;;;;;;;;15.69;65.33;94961.19;5061241;28;20107;-66
2022/09/25 02:43:33;;;;;;;;;;;;;;;15.72;65.18;94951.72;5070214;28;20044;-66
2022/09/25 02:46:05;;;;;;;;;;;;;;;15.76;65.53;94958.72;5066298;28;20529;-66
2022/09/25 02:48:34;;;;;;;;;;;;;;;15.75;65.24;94948.34;5069550;28;20578;-66
2022/09/25 02:51:17;;;;;;;;;;;;;;;15.76;65.40;94947.97;5067565;28;20013;-66
2022/09/25 02:53:49;;;;;;;;;;;;;;;15.80;65.25;94937.34;5068903;28;20013;-66
2022/09/25 02:56:27;;;;;;;;;;;;;;;15.75;64.78;94940.28;5069930;28;20005;-66
2022/09/25 02:58:58;;;;;;;;;;;;;;;15.68;64.16;94942.78;5068057;28;20008;-66
2022/09/25 03:01:25;;;;;;;;;;;;;;;15.55;64.58;94944.69;5067879;28;20017;-66
2022/09/25 03:03:52;;;;;;;;;;;;;;;15.45;64.59;94940.56;5068807;28;20254;-66
2022/09/25 03:06:18;;;;;;;;;;;;;;;15.34;64.55;94942.94;5069876;28;20005;-66
2022/09/25 03:08:45;;;;;;;;;;;;;;;15.16;65.13;94935.50;5068242;28;20058;-66
2022/09/25 03:11:12;;;;;;;;;;;;;;;14.97;65.66;94936.88;5069096;28;20606;-65
2022/09/25 03:13:37;;;;;;;;;;;;;;;14.65;66.15;94925.16;5067126;28;20013;-66
2022/09/25 03:16:19;;;;;;;;;;;;;;;14.71;66.19;94931.84;5066709;28;20009;-65
2022/09/25 03:18:45;;;;;;;;;;;;;;;14.62;66.31;94930.41;5069418;28;20028;-66
2022/09/25 03:21:10;;;;;;;;;;;;;;;14.54;66.46;94935.53;5068149;28;20489;-66
2022/09/25 03:23:36;;;;;;;;;;;;;;;14.56;66.78;94916.47;5068588;28;20013;-65
2022/09/25 03:26:03;;;;;;;;;;;;;;;14.59;66.76;94917.69;5069555;28;20465;-66
2022/09/25 03:28:28;;;;;;;;;;;;;;;14.35;66.35;94915.75;5069205;28;20044;-65
2022/09/25 03:30:55;;;;;;;;;;;;;;;14.09;67.82;94916.03;5064953;28;20500;-65
2022/09/25 03:33:20;;;;;;;;;;;;;;;14.23;67.56;94924.53;5069132;28;20024;-66
2022/09/25 03:35:45;;;;;;;;;;;;;;;14.34;67.54;94925.69;5066794;28;20013;-66
2022/09/25 03:38:11;;;;;;;;;;;;;;;14.33;67.07;94918.78;5068226;28;20452;-65
2022/09/25 03:40:36;;;;;;;;;;;;;;;14.30;67.21;94922.09;5067559;28;20055;-65
2022/09/25 03:43:02;;;;;;;;;;;;;;;14.37;67.71;94919.63;5068403;28;20055;-66
2022/09/25 03:45:27;;;;;;;;;;;;;;;14.52;67.21;94918.25;5066478;28;20112;-66
2022/09/25 03:47:53;;;;;;;;;;;;;;;14.61;66.79;94910.88;5072464;28;20428;-66
2022/09/25 03:50:18;;;;;;;;;;;;;;;14.68;66.70;94911.09;5070912;28;20013;-65
2022/09/25 03:52:43;;;;;;;;;;;;;;;14.70;66.45;94918.81;5073220;28;20470;-67
2022/09/25 03:55:10;;;;;;;;;;;;;;;14.72;66.25;94913.91;5071861;28;20382;-66
2022/09/25 03:57:36;;;;;;;;;;;;;;;14.74;65.78;94917.00;5073702;28;20005;-66
2022/09/25 04:00:01;;;;;;;;;;;;;;;14.73;65.84;94918.91;5070129;28;20552;-65
2022/09/25 04:02:27;;;;;;;;;;;;;;;14.77;66.08;94914.44;5070990;28;20017;-65
2022/09/25 04:04:53;;;;;;;;;;;;;;;14.71;65.61;94912.34;5072362;28;20058;-66
2022/09/25 04:07:19;;;;;;;;;;;;;;;14.70;65.71;94910.78;5073090;28;20012;-66
2022/09/25 04:09:44;;;;;;;;;;;;;;;14.69;65.73;94909.19;5071601;28;20013;-66
2022/09/25 04:12:10;;;;;;;;;;;;;;;14.65;65.96;94908.34;5071917;28;20067;-65
2022/09/25 04:14:35;;;;;;;;;;;;;;;14.59;65.87;94905.09;5071003;28;20014;-65
2022/09/25 04:17:00;;;;;;;;;;;;;;;14.55;65.33;94909.56;5069037;28;20393;-65
2022/09/25 04:19:26;;;;;;;;;;;;;;;14.52;65.94;94907.53;5071306;28;20100;-66
2022/09/25 04:21:51;;;;;;;;;;;;;;;14.51;66.06;94897.94;5071744;28;20017;-66
2022/09/25 04:27:00;;;;;;;;;;;;;;;14.63;65.92;94911.31;5072796;28;20388;-66
2022/09/25 04:29:26;;;;;;;;;;;;;;;14.73;66.03;94907.41;5070666;28;20013;-66
2022/09/25 04:34:35;;;;;;;;;;;;;;;14.97;65.88;94909.31;5071708;28;20091;-66
2022/09/25 04:37:01;;;;;;;;;;;;;;;15.07;65.99;94906.16;5071631;28;20059;-66
2022/09/25 04:39:26;;;;;;;;;;;;;;;15.20;65.81;94901.56;5071272;28;20035;-66
2022/09/25 04:41:52;;;;;;;;;;;;;;;15.31;65.72;94908.03;5070696;28;20021;-66
2022/09/25 04:44:17;;;;;;;;;;;;;;;15.43;65.54;94905.28;5071582;28;20025;-66
2022/09/25 04:46:42;;;;;;;;;;;;;;;15.55;65.03;94915.97;5067475;28;20084;-66
2022/09/25 04:49:07;;;;;;;;;;;;;;;15.59;64.98;94906.13;5071967;28;20012;-66
2022/09/25 04:51:32;;;;;;;;;;;;;;;15.62;65.00;94907.34;5070054;28;20020;-66
2022/09/25 04:53:58;;;;;;;;;;;;;;;15.67;64.77;94909.06;5071303;28;20446;-67
2022/09/25 04:56:24;;;;;;;;;;;;;;;15.71;64.71;94904.53;5070662;28;20013;-66
2022/09/25 04:58:49;;;;;;;;;;;;;;;15.75;64.30;94908.09;5071047;28;20035;-66
2022/09/25 05:01:16;;;;;;;;;;;;;;;15.75;63.96;94918.84;5067266;28;20132;-66
2022/09/25 05:03:41;;;;;;;;;;;;;;;15.75;64.28;94914.25;5070079;28;20017;-66
2022/09/25 05:06:07;;;;;;;;;;;;;;;15.77;63.97;94916.59;5068960;28;20047;-66
2022/09/25 05:08:32;;;;;;;;;;;;;;;15.81;63.97;94915.56;5071308;28;20013;-66
2022/09/25 05:10:58;;;;;;;;;;;;;;;15.81;63.89;94920.16;5069925;28;20073;-68
2022/09/25 05:13:23;;;;;;;;;;;;;;;15.82;64.05;94914.47;5069614;28;20415;-67
2022/09/25 05:15:48;;;;;;;;;;;;;;;15.85;63.83;94915.66;5068569;28;20017;-66
2022/09/25 05:18:21;;;;;;;;;;;;;;;15.89;63.87;94910.41;5070070;28;20377;-66
2022/09/25 05:20:47;;;;;;;;;;;;;;;15.93;63.88;94909.38;5067732;28;20482;-66
2022/09/25 05:23:13;;;;;;;;;;;;;;;15.97;63.47;94912.13;5069737;28;20009;-66
2022/09/25 05:25:38;;;;;;;;;;;;;;;15.99;63.51;94905.31;5069248;28;20021;-66
2022/09/25 05:28:03;;;;;;;;;;;;;;;16.02;63.54;94911.88;5070454;28;20076;-66
2022/09/25 05:30:29;;;;;;;;;;;;;;;16.05;63.42;94908.53;5068164;28;20014;-66
2022/09/25 05:32:57;;;;;;;;;;;;;;;16.09;63.29;94909.41;5069376;28;20017;-67
2022/09/25 05:35:23;;;;;;;;;;;;;;;16.08;63.40;94903.25;5070389;28;20020;-67
2022/09/25 05:37:48;;;;;;;;;;;;;;;16.14;63.15;94911.06;5071401;28;20374;-66
2022/09/25 05:40:16;;;;;;;;;;;;;;;16.15;63.18;94915.28;5069835;28;20068;-66
2022/09/25 05:42:43;;;;;;;;;;;;;;;16.15;63.27;94902.66;5070450;28;20036;-66
2022/09/25 05:45:08;;;;;;;;;;;;;;;16.20;63.02;94913.13;5069622;28;20009;-66
2022/09/25 05:47:34;;;;;;;;;;;;;;;16.26;63.07;94908.28;5085050;28;20091;-66
2022/09/25 05:49:59;;;;;;;;;;;;;;;16.30;63.02;94917.22;5069832;28;20009;-65
2022/09/25 05:52:24;;;;;;;;;;;;;;;16.34;62.88;94915.41;5069931;28;20043;-66
2022/09/25 05:54:49;;;;;;;;;;;;;;;16.45;62.45;94911.06;5066806;28;20009;-66
2022/09/25 05:57:14;;;;;;;;;;;;;;;16.52;62.39;94913.91;5071053;28;20084;-65
2022/09/25 05:59:40;;;;;;;;;;;;;;;16.57;62.12;94907.50;5069878;28;20014;-66
2022/09/25 06:02:05;;;;;;;;;;;;;;;16.69;61.67;94912.81;5067447;28;20009;-65
2022/09/25 06:04:30;;;;;;;;;;;;;;;16.77;61.76;94908.41;5069080;28;20076;-66
2022/09/25 06:06:55;;;;;;;;;;;;;;;16.83;61.74;94905.09;5070719;28;20010;-66
2022/09/25 06:09:21;;;;;;;;;;;;;;;16.95;61.56;94917.66;5068730;28;20031;-66
2022/09/25 06:11:46;;;;;;;;;;;;;;;17.04;61.21;94912.84;5068644;28;20411;-66
2022/09/25 06:14:12;;;;;;;;;;;;;;;17.12;60.91;94919.16;5068655;28;20094;-66
2022/09/25 06:16:37;;;;;;;;;;;;;;;17.05;61.32;94919.81;5068066;28;20057;-66
2022/09/25 06:19:03;;;;;;;;;;;;;;;17.10;61.10;94919.53;5068967;28;20011;-65
2022/09/25 06:21:28;;;;;;;;;;;;;;;17.13;61.01;94920.72;5068317;28;20071;-66
2022/09/25 06:23:54;;;;;;;;;;;;;;;17.15;60.97;94913.09;5069167;28;20009;-65
2022/09/25 06:26:20;;;;;;;;;;;;;;;17.19;61.06;94913.94;5069234;28;20020;-65
2022/09/25 06:28:45;;;;;;;;;;;;;;;17.29;61.11;94912.63;5069787;28;20493;-65
2022/09/25 06:31:10;;;;;;;;;;;;;;;17.39;60.86;94920.13;5066910;28;20107;-66
2022/09/25 06:33:36;;;;;;;;;;;;;;;17.44;60.49;94916.38;5083038;28;20036;-66
2022/09/25 06:36:03;;;;;;;;;;;;;;;17.51;59.97;94914.63;5065518;28;20014;-65
2022/09/25 06:38:28;;;;;;;;;;;;;;;17.60;60.16;94904.44;5056709;28;20005;-66
2022/09/25 06:40:54;;;;;;;;;;;;;;;17.74;60.25;94903.19;5061305;28;20013;-65
2022/09/25 06:43:19;;;;;;;;;;;;;;;17.86;59.75;94911.09;5059406;28;20022;-66
2022/09/25 06:45:47;;;;;;;;;;;;;;;17.95;59.71;94911.66;5065018;28;20396;-66
2022/09/25 06:48:15;;;;;;;;;;;;;;;18.04;59.23;94904.16;5066624;28;20010;-63
2022/09/25 06:50:42;;;;;;;;;;;;;;;18.18;58.82;94915.19;5065283;28;20485;-65
2022/09/25 06:53:08;;;;;;;;;;;;;;;18.27;58.58;94901.50;5065334;28;20005;-64
2022/09/25 06:55:33;;;;;;;;;;;;;;;18.44;58.55;94902.94;5068109;28;20058;-67
2022/09/25 06:57:59;;;;;;;;;;;;;;;18.74;58.41;94905.75;5070161;28;20062;-64
2022/09/25 07:00:24;;;;;;;;;;;;;;;18.91;56.68;94904.47;5066636;28;20017;-64
2022/09/25 07:05:33;;;;;;;;;;;;;;;19.57;56.58;94905.75;5067296;28;20012;-65
2022/09/25 07:07:59;;;;;;;;;;;;;;;19.91;56.23;94911.16;5057930;28;20014;-66
2022/09/25 07:10:24;;;;;;;;;;;;;;;20.26;55.29;94911.53;5061789;28;20009;-67
2022/09/25 07:12:49;;;;;;;;;;;;;;;20.58;55.05;94908.41;5065873;28;20119;-65
2022/09/25 07:15:15;;;;;;;;;;;;;;;20.74;53.73;94908.16;5062336;28;20005;-62
2022/09/25 07:17:41;;;;;;;;;;;;;;;20.96;53.37;94904.44;5060489;28;20058;-62
2022/09/25 07:20:07;;;;;;;;;;;;;;;21.20;52.25;94905.75;5057139;28;20143;-64
2022/09/25 07:22:32;;;;;;;;;;;;;;;21.34;52.00;94907.00;5061499;28;20529;-63
2022/09/25 07:24:57;;;;;;;;;;;;;;;21.47;51.69;94908.25;5063466;28;20505;-64
2022/09/25 07:27:22;;;;;;;;;;;;;;;21.61;50.67;94911.03;5065003;28;20044;-63
2022/09/25 07:29:47;;;;;;;;;;;;;;;21.38;50.50;94910.53;5064160;28;20005;-63
2022/09/25 07:32:13;;;;;;;;;;;;;;;20.81;50.97;94902.00;5063350;28;20032;-66
2022/09/25 07:34:38;;;;;;;;;;;;;;;20.79;52.35;94905.09;5062738;28;20009;-68
2022/09/25 07:37:03;;;;;;;;;;;;;;;20.21;54.48;94905.69;5064346;28;20484;-69
2022/09/25 07:39:28;;;;;;;;;;;;;;;19.65;56.71;94918.19;5064536;28;20009;-64
2022/09/25 07:41:54;;;;;;;;;;;;;;;18.45;58.46;94920.63;5061863;28;20010;-64
2022/09/25 07:44:19;;;;;;;;;;;;;;;18.43;59.60;94917.53;5072167;28;20655;-67
2022/09/25 07:46:44;;;;;;;;;;;;;;;18.29;59.98;94912.66;5072520;28;20010;-67
2022/09/25 07:49:10;;;;;;;;;;;;;;;17.98;60.87;94920.94;5064475;28;20071;-64
2022/09/25 07:51:35;;;;;;;;;;;;;;;18.51;60.14;94913.81;5053216;28;20013;-64
2022/09/25 07:54:00;;;;;;;;;;;;;;;17.86;61.93;94921.88;5069639;28;20062;-64
2022/09/25 07:56:26;;;;;;;;;;;;;;;19.01;58.91;94917.31;5056637;28;20049;-65
2022/09/25 07:58:52;;;;;;;;;;;;;;;19.04;57.43;94915.78;5058514;28;20017;-64
2022/09/25 08:01:17;;;;;;;;;;;;;;;19.26;56.71;94919.59;5068313;28;20120;-65
2022/09/25 08:03:43;;;;;;;;;;;;;;;18.18;58.43;94928.63;5082997;28;20009;-68
2022/09/25 08:06:11;;;;;;;;;;;;;;;17.45;61.43;94924.09;5073387;28;20005;-68
2022/09/25 08:08:37;;;;;;;;;;;;;;;18.17;59.06;94926.31;5061636;28;20013;-68
2022/09/25 08:11:05;;;;;;;;;;;;;;;18.37;59.36;94918.94;5072194;28;20019;-68
2022/09/25 08:13:32;;;;;;;;;;;;;;;19.41;56.70;94932.13;5072598;28;20013;-65
2022/09/25 08:15:57;;;;;;;;;;;;;;;18.68;56.82;94923.34;5072371;28;20014;-65
2022/09/25 08:18:22;;;;;;;;;;;;;;;17.95;59.75;94930.50;5070450;28;20015;-66
2022/09/25 08:20:47;;;;;;;;;;;;;;;18.58;57.88;94923.91;5072984;28;20013;-65
2022/09/25 08:23:12;;;;;;;;;;;;;;;17.92;59.70;94925.84;5073236;28;20089;-64
2022/09/25 08:25:38;;;;;;;;;;;;;;;17.52;61.66;94929.63;5073037;28;20476;-64
2022/09/25 08:28:03;;;;;;;;;;;;;;;18.36;59.51;94912.00;5062249;28;20480;-65
2022/09/25 08:30:29;;;;;;;;;;;;;;;17.86;60.11;94921.88;5067244;28;20017;-64
2022/09/25 08:32:54;;;;;;;;;;;;;;;17.08;61.90;94919.09;5061552;28;20040;-65
2022/09/25 08:35:20;;;;;;;;;;;;;;;17.39;61.45;94934.34;5052028;28;20017;-64
2022/09/25 08:37:47;;;;;;;;;;;;;;;18.33;59.05;94931.59;5051672;28;20013;-69
2022/09/25 08:40:17;;;;;;;;;;;;;;;17.67;60.52;94933.41;5072337;28;20415;-63
2022/09/25 08:42:44;;;;;;;;;;;;;;;18.77;58.36;94931.19;5072806;28;20009;-66
2022/09/25 08:50:43;;;;;;;;;;;;;;;18.35;57.93;94934.69;5070394;28;20055;-64
2022/09/25 08:53:19;;;;;;;;;;;;;;;17.95;59.59;94940.50;5066330;28;20499;-63
2022/09/25 08:58:30;;;;;;;;;;;;;;;16.69;63.45;94938.88;5072161;28;20067;-65
2022/09/25 09:01:04;;;;;;;;;;;;;;;17.19;62.15;94930.06;5070779;28;20511;-63
2022/09/25 09:03:31;;;;;;;;;;;;;;;18.41;59.40;94930.56;5071203;28;20516;-62
2022/09/25 09:06:00;;;;;;;;;;;;;;;19.17;57.75;94928.72;5071954;28;20104;-63
2022/09/25 09:08:27;;;;;;;;;;;;;;;18.15;58.22;94928.56;5055395;28;20024;-63
2022/09/25 09:10:56;;;;;;;;;;;;;;;17.93;58.20;94935.47;5072892;28;20009;-65
2022/09/25 09:13:31;;;;;;;;;;;;;;;18.15;58.03;94923.97;5070594;28;20454;-64
2022/09/25 09:16:01;;;;;;;;;;;;;;;18.41;58.11;94925.19;5071922;28;20012;-64
2022/09/25 09:18:28;;;;;;;;;;;;;;;18.17;58.44;94927.09;5066235;28;20396;-64
2022/09/25 09:20:57;;;;;;;;;;;;;;;18.80;57.11;94927.78;5071633;28;20009;-65
2022/09/25 09:23:28;;;;;;;;;;;;;;;19.18;56.22;94921.41;5069043;28;20016;-64
2022/09/25 09:26:12;;;;;;;;;;;;;;;17.63;60.38;94925.25;5072374;28;20005;-64
2022/09/25 09:28:53;;;;;;;;;;;;;;;18.43;58.90;94914.84;5072030;28;20006;-64
2022/09/25 09:31:18;;;;;;;;;;;;;;;19.33;56.44;94915.06;5070304;28;20016;-64
2022/09/25 09:33:46;;;;;;;;;;;;;;;20.20;53.81;94907.63;5071628;28;20353;-64
2022/09/25 09:36:22;;;;;;;;;;;;;;;19.74;54.51;94910.59;5070552;28;20088;-64
2022/09/25 09:38:54;;;;;;;;;;;;;;;19.59;54.58;94900.78;5070835;28;20021;-64
2022/09/25 09:41:20;;;;;;;;;;;;;;;20.54;53.45;94898.72;5070053;28;20017;-64
2022/09/25 09:44:11;;;;;;;;;;;;;;;21.46;51.09;94898.59;5071370;28;20100;-64
2022/09/25 09:46:37;;;;;;;;;;;;;;;22.05;49.46;94901.91;5070069;28;20016;-64
2022/09/25 09:49:07;;;;;;;;;;;;;;;22.60;48.46;94893.50;5071265;28;20455;-64
2022/09/25 09:51:56;;;;;;;;;;;;;;;21.91;47.75;94891.81;5070964;28;20055;-64
2022/09/25 09:54:27;;;;;;;;;;;;;;;20.37;51.44;94903.56;5065668;28;20050;-64
2022/09/25 09:56:54;;;;;;;;;;;;;;;20.60;51.16;94897.22;5071035;28;20012;-64
2022/09/25 09:59:22;;;;;;;;;;;;;;;20.94;50.73;94897.88;5070958;28;20139;-64
2022/09/25 10:01:54;;;;;;;;;;;;;;;21.49;49.84;94892.41;5069713;28;20020;-64
2022/09/25 10:04:23;;;;;;;;;;;;;;;21.61;49.03;94900.22;5066871;28;20017;-64
2022/09/25 10:07:07;;;;;;;;;;;;;;;22.56;47.73;94885.34;5069252;28;20009;-64
2022/09/25 10:09:32;;;;;;;;;;;;;;;23.09;45.93;94892.75;5067625;28;20050;-64
2022/09/25 10:12:06;;;;;;;;;;;;;;;23.65;45.49;94890.28;5068978;28;20040;-63
2022/09/25 10:14:34;;;;;;;;;;;;;;;23.90;44.44;94900.25;5066082;28;20017;-63
2022/09/25 10:17:00;;;;;;;;;;;;;;;24.18;44.45;94888.50;5068435;28;20533;-67
2022/09/25 10:19:27;;;;;;;;;;;;;;;24.35;43.29;94893.03;5070358;28;20016;-66
2022/09/25 10:21:56;;;;;;;;;;;;;;;24.52;43.09;94891.41;5069116;28;20065;-67
2022/09/25 10:24:40;;;;;;;;;;;;;;;24.56;42.38;94889.41;5070425;28;20017;-64
2022/09/25 10:27:19;;;;;;;;;;;;;;;24.66;42.40;94888.56;5054184;28;20009;-64
2022/09/25 10:29:44;;;;;;;;;;;;;;;23.17;44.21;94888.06;5052798;28;20054;-65
2022/09/25 10:32:12;;;;;;;;;;;;;;;22.14;46.61;94890.72;5068070;28;20227;-64
2022/09/25 10:34:38;;;;;;;;;;;;;;;22.24;46.89;94887.28;5079514;22;20108;-70
2022/09/25 10:37:17;;;;;;;;;;;;;;;22.16;47.10;94883.78;5070701;28;20005;-72
2022/09/25 10:39:43;;;;;;;;;;;;;;;22.79;46.21;94895.81;5060812;28;20052;-70
2022/09/25 10:42:29;;;;;;;;;;;;;;;23.37;45.11;94882.19;5049369;28;20049;-75
2022/09/25 10:44:55;;;;;;;;;;;;;;;24.31;43.17;94892.28;5035832;28;20541;-73
2022/09/25 10:50:25;;;;;;;;;;;;;;;23.95;42.15;94888.97;5048634;28;20104;-71
2022/09/25 10:52:57;;;;;;;;;;;;;;;24.34;41.79;94880.63;5049027;28;20025;-72
2022/09/25 10:55:35;;;;;;;;;;;;;;;24.74;41.95;94887.34;5045170;28;20040;-71
2022/09/25 10:58:09;;;;;;;;;;;;;;;25.21;40.72;94874.13;5046448;28;20501;-73
2022/09/25 11:00:50;;;;;;;;;;;;;;;25.50;40.42;94879.28;5033229;28;20018;-73
2022/09/25 11:03:24;;;;;;;;;;;;;;;25.76;38.95;94877.81;5033664;28;20022;-74
2022/09/25 11:05:53;;;;;;;;;;;;;;;25.79;38.25;94875.03;5046926;28;20071;-70
2022/09/25 11:08:22;;;;;;;;;;;;;;;24.66;39.55;94880.41;5049282;28;20013;-74
2022/09/25 11:10:52;;;;;;;;;;;;;;;24.68;39.67;94878.06;5049816;28;20072;-75
2022/09/25 11:13:35;;;;;;;;;;;;;;;24.11;40.16;94878.44;5047948;28;20430;-75
2022/09/25 11:16:02;;;;;;;;;;;;;;;24.89;39.24;94872.44;5049620;28;20013;-72
2022/09/25 11:18:36;;;;;;;;;;;;;;;25.23;38.70;94862.81;5030497;28;20014;-73
2022/09/25 11:21:02;;;;;;;;;;;;;;;25.56;38.46;94856.63;5047453;28;20120;-73
2022/09/25 11:23:43;;;;;;;;;;;;;;;25.56;38.69;94864.03;5046187;28;20020;-73
2022/09/25 11:26:15;;;;;;;;;;;;;;;25.55;38.78;94857.03;5047333;28;20017;-73
2022/09/25 11:28:49;;;;;;;;;;;;;;;25.49;38.88;94858.63;5040969;28;20036;-73
2022/09/25 11:31:21;;;;;;;;;;;;;;;25.04;39.08;94850.56;5047604;28;20009;-74
2022/09/25 11:34:02;;;;;;;;;;;;;;;23.07;42.10;94859.00;5049287;28;20425;-74
2022/09/25 11:36:30;;;;;;;;;;;;;;;20.95;47.02;94858.88;5030319;28;20009;-73
2022/09/25 11:42:02;;;;;;;;;;;;;;;21.49;45.73;94858.00;5049132;28;20067;-73
2022/09/25 11:44:44;;;;;;;;;;;;;;;21.34;45.70;94858.31;5048169;28;20013;-73
2022/09/25 11:47:24;;;;;;;;;;;;;;;22.46;43.46;94855.53;5046620;28;20010;-73
2022/09/25 11:49:52;;;;;;;;;;;;;;;23.18;41.74;94845.41;5047795;28;20032;-73
2022/09/25 11:52:23;;;;;;;;;;;;;;;23.56;41.34;94846.47;5049452;28;20105;-72
2022/09/25 11:55:02;;;;;;;;;;;;;;;23.20;41.43;94852.00;5048398;28;20014;-72
2022/09/25 11:57:41;;;;;;;;;;;;;;;22.98;42.69;94850.50;5048919;28;20013;-72
2022/09/25 12:00:11;;;;;;;;;;;;;;;22.09;46.34;94842.31;5046779;28;20006;-73
2022/09/25 12:02:42;;;;;;;;;;;;;;;21.53;47.99;94844.50;5048084;28;20013;-73
2022/09/25 12:05:08;;;;;;;;;;;;;;;20.28;51.63;94842.91;5047755;28;20005;-71
2022/09/25 12:07:39;;;;;;;;;;;;;;;19.41;53.88;94835.81;5049650;28;20551;-71
2022/09/25 12:10:13;;;;;;;;;;;;;;;20.53;51.34;94838.50;5049036;28;20006;-71
2022/09/25 12:12:51;;;;;;;;;;;;;;;19.68;54.06;94846.53;5052480;28;20544;-70
2022/09/25 12:15:19;;;;;;;;;;;;;;;20.48;51.64;94838.84;5041114;28;20016;-70
2022/09/25 12:18:10;;;;;;;;;;;;;;;20.56;50.57;94837.72;5051973;28;20014;-72
2022/09/25 12:20:39;;;;;;;;;;;;;;;20.40;51.16;94837.19;5014320;28;20018;-71
2022/09/25 12:23:20;;;;;;;;;;;;;;;19.62;53.04;94838.00;5047538;28;20370;-71
2022/09/25 12:26:01;;;;;;;;;;;;;;;19.78;52.83;94835.09;5039452;28;20041;-73
2022/09/25 12:28:47;;;;;;;;;;;;;;;20.42;51.17;94826.78;5052193;28;20623;-72
2022/09/25 12:31:14;;;;;;;;;;;;;;;20.14;52.05;94836.19;5031908;28;20068;-72
2022/09/25 12:33:49;;;;;;;;;;;;;;;18.50;55.89;94831.44;5059837;28;20359;-72
2022/09/25 12:36:18;;;;;;;;;;;;;;;18.77;55.26;94834.94;5045072;28;20011;-72
2022/09/25 12:39:07;;;;;;;;;;;;;;;18.60;55.73;94835.44;5050664;28;20014;-73
2022/09/25 12:41:39;;;;;;;;;;;;;;;18.29;57.68;94831.91;5048759;28;20018;-74
2022/09/25 12:44:23;;;;;;;;;;;;;;;18.45;56.33;94835.22;5051957;28;20504;-72
2022/09/25 12:47:12;;;;;;;;;;;;;;;19.45;53.98;94827.75;5035936;28;20014;-71
2022/09/25 12:49:40;;;;;;;;;;;;;;;18.75;55.93;94826.47;5031849;28;20048;-71
2022/09/25 12:52:11;;;;;;;;;;;;;;;19.22;54.35;94825.94;5052721;28;20548;-70
2022/09/25 12:54:46;;;;;;;;;;;;;;;18.61;56.19;94831.63;5050251;28;20014;-71
2022/09/25 12:57:15;;;;;;;;;;;;;;;18.26;57.02;94826.44;5048830;28;20013;-72
2022/09/25 13:00:00;;;;;;;;;;;;;;;18.42;56.65;94830.56;5049816;28;20458;-71
2022/09/25 13:02:44;;;;;;;;;;;;;;;19.25;54.64;94831.75;5047831;28;20100;-75
2022/09/25 13:05:14;;;;;;;;;;;;;;;18.93;55.72;94830.16;5050690;28;20010;-71
2022/09/25 13:07:40;;;;;;;;;;;;;;;18.21;57.05;94832.91;5043540;28;20013;-72
2022/09/25 13:10:16;;;;;;;;;;;;;;;18.00;58.03;94825.25;5051216;28;20477;-72
2022/09/25 13:12:43;;;;;;;;;;;;;;;17.91;57.84;94822.00;5049142;28;20020;-72
2022/09/25 13:15:08;;;;;;;;;;;;;;;18.07;57.50;94825.41;5040379;28;20104;-71
2022/09/25 13:17:34;;;;;;;;;;;;;;;17.72;59.20;94822.03;5048063;28;20112;-70
2022/09/25 13:20:19;;;;;;;;;;;;;;;17.42;60.00;94828.03;5049145;28;20053;-69
2022/09/25 13:22:44;;;;;;;;;;;;;;;17.05;61.13;94830.34;5051367;28;20020;-70